Ann Arbor Township, Michigan
Current Conditions -  °F | °C
As of 6:53 PM on Friday 21 Nov 2014 (Local Time) from KARB Reporting Station
Clear Clear  
Wind Chill: -12°   Ceiling: Unl
Heat Index: -7°   Visibility: 10mi
Dew Point: -12°   Wind: 7mph
Humidity: 68%   Direction: 200°SSW
Pressure: 30.41"   Gusts: NA
Location:  42.3281°N, 83.7037°W
Report Text: KARB 212353Z AUTO 20006KT 10SM CLR M07/M12 A3041 RMK AO2 SLP316 T10671117 11028 21067 56005
Loading
Personal Weather Stations






























Interactive Weather Map New forecast layout! Learn more

10-Day Weather Forecast

Advertisements
Track Severe Weather on mobile